Time;durP1;ratioP1;P1;durP2;ratioP2;P2;SDS_P1;SDS_P2;PMS_P1;PMS_P2;Temp;Humidity;BMP_temperature;BMP_pressure;BME280_temperature;BME280_humidity;BME280_pressure;Samples;Min_cycle;Max_cycle;Signal;HPM_P1;HPM_P2
2023/03/03 00:01:25;;;;;;;105.15;30.20;;;2.90;99.90;;;;;;5032491;28;20056;-76
2023/03/03 00:03:51;;;;;;;55.38;24.60;;;2.80;99.90;;;;;;5032497;28;20049;-76
2023/03/03 00:06:17;;;;;;;44.00;24.38;;;2.80;99.90;;;;;;5032464;28;20140;-76
2023/03/03 00:08:43;;;;;;;43.55;23.80;;;2.80;99.90;;;;;;5032390;28;20582;-76
2023/03/03 00:11:09;;;;;;;57.20;26.35;;;2.90;99.90;;;;;;5015460;28;20050;-76
2023/03/03 00:13:45;;;;;;;57.78;25.30;;;2.80;99.90;;;;;;5032531;28;20057;-74
2023/03/03 00:16:38;;;;;;;58.03;25.98;;;2.90;99.90;;;;;;5032355;28;20124;-77
2023/03/03 00:19:17;;;;;;;47.40;22.50;;;2.80;99.90;;;;;;5032737;28;20041;-77
2023/03/03 00:21:48;;;;;;;51.58;25.40;;;2.90;99.90;;;;;;5014947;28;20052;-77
2023/03/03 00:24:24;;;;;;;96.57;29.80;;;2.80;99.90;;;;;;5032721;28;20057;-77
2023/03/03 00:26:51;;;;;;;62.15;26.55;;;2.80;99.90;;;;;;5032765;28;20092;-77
2023/03/03 00:29:40;;;;;;;84.15;34.50;;;3.10;99.90;;;;;;5014799;28;20045;-78
2023/03/03 00:32:14;;;;;;;92.30;30.20;;;2.90;99.90;;;;;;5032045;28;20521;-76
2023/03/03 00:34:43;;;;;;;75.72;28.30;;;3.20;99.90;;;;;;5014911;28;20060;-76
2023/03/03 00:37:33;;;;;;;77.55;26.77;;;2.90;99.90;;;;;;5031717;28;20437;-78
2023/03/03 00:40:19;;;;;;;142.93;28.27;;;3.00;99.90;;;;;;5032250;28;20497;-78
2023/03/03 00:42:50;;;;;;;103.53;25.95;;;3.00;99.90;;;;;;5015020;28;20045;-76
2023/03/03 00:45:30;;;;;;;193.32;32.90;;;3.00;99.90;;;;;;5014504;28;20054;-77
2023/03/03 00:47:56;;;;;;;90.25;25.05;;;3.00;99.90;;;;;;5014614;28;20124;-76
2023/03/03 00:50:31;;;;;;;113.75;30.65;;;3.00;99.90;;;;;;5032001;28;20499;-78
2023/03/03 00:53:02;;;;;;;119.60;32.15;;;3.00;99.90;;;;;;5032425;28;20124;-77
2023/03/03 00:55:29;;;;;;;131.30;30.75;;;3.30;99.90;;;;;;5031987;28;20049;-77
2023/03/03 00:57:55;;;;;;;105.38;23.52;;;3.20;99.90;;;;;;5034592;28;20053;-75
2023/03/03 01:00:20;;;;;;;122.05;25.00;;;3.00;99.90;;;;;;5018570;28;20052;-77
2023/03/03 01:02:47;;;;;;;89.47;25.65;;;3.00;99.90;;;;;;5035563;28;20049;-77
2023/03/03 01:05:15;;;;;;;117.30;30.85;;;3.40;99.90;;;;;;5036177;28;20106;-77
2023/03/03 01:07:41;;;;;;;121.35;29.50;;;3.10;99.90;;;;;;5036189;28;20049;-77
2023/03/03 01:10:08;;;;;;;155.00;30.60;;;3.00;99.90;;;;;;5035704;28;20053;-74
2023/03/03 01:12:33;;;;;;;129.50;30.55;;;3.00;99.90;;;;;;5035745;28;20049;-78
2023/03/03 01:14:59;;;;;;;109.68;28.98;;;3.20;99.90;;;;;;5035958;28;20045;-76
2023/03/03 01:17:25;;;;;;;112.85;33.65;;;3.00;99.90;;;;;;5035743;28;20063;-78
2023/03/03 01:19:51;;;;;;;102.07;26.88;;;3.00;99.90;;;;;;5035587;28;20099;-75
2023/03/03 01:22:16;;;;;;;79.65;21.52;;;2.30;99.90;;;;;;5035588;28;20049;-77
2023/03/03 01:24:42;;;;;;;188.32;30.92;;;3.00;99.90;;;;;;5035548;28;20045;-75
2023/03/03 01:27:07;;;;;;;82.68;21.25;;;3.10;99.90;;;;;;5035534;28;20118;-77
2023/03/03 01:29:33;;;;;;;155.70;37.67;;;3.10;99.90;;;;;;5034940;28;20056;-77
2023/03/03 01:31:59;;;;;;;212.23;45.45;;;3.10;99.90;;;;;;5017815;28;20049;-78
2023/03/03 01:34:24;;;;;;;74.10;18.17;;;3.10;99.90;;;;;;5017723;28;20504;-77
2023/03/03 01:36:50;;;;;;;90.50;19.25;;;3.10;99.90;;;;;;5034930;28;20045;-77
2023/03/03 01:39:16;;;;;;;68.45;16.33;;;3.10;99.90;;;;;;5034901;28;20057;-76
2023/03/03 01:41:41;;;;;;;85.30;18.13;;;3.10;99.90;;;;;;5017460;28;20065;-77
2023/03/03 01:44:13;;;;;;;84.85;20.33;;;3.20;99.90;;;;;;5035023;28;20554;-77
2023/03/03 01:46:51;;;;;;;115.97;22.92;;;3.20;99.90;;;;;;5035105;28;20480;-77
2023/03/03 01:49:43;;;;;;;114.05;23.77;;;3.20;99.90;;;;;;5017547;28;20609;-78
2023/03/03 01:52:35;;;;;;;121.97;22.10;;;3.20;99.90;;;;;;5034809;28;20057;-78
2023/03/03 01:55:08;;;;;;;53.85;19.30;;;3.20;99.90;;;;;;5035006;28;20053;-78
2023/03/03 01:57:39;;;;;;;80.35;19.33;;;3.20;99.90;;;;;;5035304;28;20054;-77
2023/03/03 02:00:06;;;;;;;125.75;26.92;;;3.30;99.90;;;;;;5034787;28;20041;-77
2023/03/03 02:02:33;;;;;;;92.07;21.50;;;3.30;99.90;;;;;;5034816;28;20045;-77
2023/03/03 02:04:59;;;;;;;91.28;24.05;;;3.40;99.90;;;;;;5034670;28;20045;-77
2023/03/03 02:07:28;;;;;;;63.40;20.90;;;3.40;99.90;;;;;;5034511;28;20056;-77
2023/03/03 02:10:03;;;;;;;97.35;23.88;;;3.70;99.90;;;;;;5033993;28;20045;-77
2023/03/03 02:12:42;;;;;;;42.55;19.25;;;3.50;99.90;;;;;;5001018;28;20049;-76
2023/03/03 02:15:25;;;;;;;78.68;18.80;;;3.50;99.90;;;;;;5034555;28;20496;-76
2023/03/03 02:18:03;;;;;;;60.92;16.92;;;3.50;99.90;;;;;;5034492;28;20092;-77
2023/03/03 02:20:43;;;;;;;50.00;16.45;;;3.80;99.90;;;;;;5034551;28;20049;-76
2023/03/03 02:23:16;;;;;;;110.72;24.08;;;3.60;99.90;;;;;;5034958;28;20049;-77
2023/03/03 02:25:55;;;;;;;67.72;15.32;;;3.70;99.90;;;;;;5035006;28;20041;-75
2023/03/03 02:28:22;;;;;;;71.68;18.23;;;3.50;99.90;;;;;;5035052;28;20052;-75
2023/03/03 02:30:48;;;;;;;58.70;15.95;;;3.60;99.90;;;;;;5034824;28;20104;-77
2023/03/03 02:33:14;;;;;;;61.80;16.95;;;4.30;99.90;;;;;;5035156;28;20041;-78
2023/03/03 02:35:40;;;;;;;113.90;20.13;;;3.60;99.90;;;;;;5034860;28;20581;-76
2023/03/03 02:38:41;;;;;;;123.82;20.77;;;3.60;99.90;;;;;;5034563;28;20045;-77
2023/03/03 02:41:52;;;;;;;64.90;15.60;;;3.50;99.90;;;;;;5029212;28;20057;-77
2023/03/03 02:44:23;;;;;;;71.70;15.88;;;3.50;99.90;;;;;;5023407;28;20061;-76
2023/03/03 02:46:51;;;;;;;245.88;32.17;;;3.40;99.90;;;;;;5034313;28;20048;-77
2023/03/03 02:49:20;;;;;;;94.00;15.85;;;3.70;99.90;;;;;;5034050;28;20042;-77
2023/03/03 02:51:46;;;;;;;37.25;11.80;;;3.50;99.90;;;;;;5034115;28;20128;-77
2023/03/03 02:54:13;;;;;;;36.95;10.80;;;3.30;99.90;;;;;;5033649;28;20528;-76
2023/03/03 02:56:39;;;;;;;71.60;14.70;;;3.40;99.90;;;;;;5033867;28;20041;-78
2023/03/03 02:59:05;;;;;;;117.38;18.70;;;3.40;99.90;;;;;;5033759;28;20063;-78
2023/03/03 03:01:35;;;;;;;88.90;17.08;;;3.40;99.90;;;;;;5016404;28;20046;-76
2023/03/03 03:04:13;;;;;;;86.05;17.48;;;3.40;99.90;;;;;;5034054;28;20046;-78
2023/03/03 03:06:39;;;;;;;64.20;15.82;;;3.40;99.90;;;;;;5033719;28;20117;-76
2023/03/03 03:09:07;;;;;;;139.73;22.95;;;3.40;99.90;;;;;;5033549;28;20088;-75
2023/03/03 03:11:34;;;;;;;110.88;17.52;;;3.90;99.90;;;;;;5033548;28;20132;-77
2023/03/03 03:14:00;;;;;;;40.03;11.57;;;3.50;99.90;;;;;;5016001;28;20049;-76
2023/03/03 03:16:26;;;;;;;78.90;15.95;;;3.60;99.90;;;;;;5033608;28;20041;-76
2023/03/03 03:18:52;;;;;;;64.05;14.35;;;3.50;99.90;;;;;;5033331;28;20046;-77
2023/03/03 03:21:18;;;;;;;165.10;23.27;;;3.40;99.90;;;;;;5032364;28;20143;-77
2023/03/03 03:23:44;;;;;;;119.78;21.80;;;3.50;99.90;;;;;;5033264;28;20181;-77
2023/03/03 03:26:10;;;;;;;104.03;18.77;;;3.40;99.90;;;;;;5033286;28;20041;-76
2023/03/03 03:28:36;;;;;;;92.28;17.75;;;3.40;99.90;;;;;;5015650;28;20444;-74
2023/03/03 03:31:03;;;;;;;211.27;32.88;;;3.40;99.90;;;;;;5033149;28;20048;-77
2023/03/03 03:33:28;;;;;;;162.55;25.38;;;3.40;99.90;;;;;;5033092;28;20084;-76
2023/03/03 03:35:55;;;;;;;108.80;19.10;;;3.40;99.90;;;;;;5033436;28;20049;-75
2023/03/03 03:38:22;;;;;;;102.30;16.02;;;3.70;99.90;;;;;;5032981;28;20048;-76
2023/03/03 03:40:47;;;;;;;88.68;13.63;;;3.30;99.90;;;;;;5015351;28;20065;-77
2023/03/03 03:43:13;;;;;;;138.75;19.00;;;3.30;99.90;;;;;;5032985;28;20053;-77
2023/03/03 03:45:42;;;;;;;188.48;22.55;;;3.30;99.90;;;;;;5016077;28;20460;-77
2023/03/03 03:48:07;;;;;;;70.80;12.30;;;3.10;99.90;;;;;;5032895;28;20095;-76
2023/03/03 03:50:33;;;;;;;37.35;9.18;;;3.10;99.90;;;;;;5032832;28;20049;-77
2023/03/03 03:52:59;;;;;;;98.05;14.77;;;3.50;99.90;;;;;;5033166;28;20116;-77
2023/03/03 03:55:25;;;;;;;94.50;14.30;;;3.20;99.90;;;;;;5033218;28;20045;-76
2023/03/03 03:57:50;;;;;;;69.63;12.00;;;3.20;99.90;;;;;;5032796;28;20332;-76
2023/03/03 04:00:16;;;;;;;71.47;12.27;;;3.20;99.90;;;;;;5032636;28;20538;-75
2023/03/03 04:02:42;;;;;;;65.47;12.65;;;3.10;99.90;;;;;;5032661;28;20090;-76
2023/03/03 04:05:08;;;;;;;70.65;12.02;;;3.10;99.90;;;;;;5032636;28;20060;-76
2023/03/03 04:07:34;;;;;;;86.18;14.02;;;3.10;99.90;;;;;;5032558;28;20128;-77
2023/03/03 04:09:59;;;;;;;125.78;16.80;;;3.10;99.90;;;;;;5032546;28;20053;-76
2023/03/03 04:12:25;;;;;;;43.30;9.45;;;3.20;99.90;;;;;;5032541;28;20045;-76
2023/03/03 04:14:51;;;;;;;80.25;12.43;;;3.00;99.90;;;;;;5032393;28;20075;-76
2023/03/03 04:17:18;;;;;;;59.45;11.77;;;3.00;99.90;;;;;;5015466;28;20044;-75
2023/03/03 04:19:44;;;;;;;87.07;12.98;;;3.00;99.90;;;;;;5015518;28;20049;-77
2023/03/03 04:22:11;;;;;;;81.38;12.48;;;3.10;99.90;;;;;;5015009;28;20041;-76
2023/03/03 04:24:37;;;;;;;103.40;12.85;;;3.00;99.90;;;;;;5032708;28;20045;-76
2023/03/03 04:27:03;;;;;;;71.68;11.32;;;2.90;99.90;;;;;;5032444;28;20049;-76
2023/03/03 04:29:29;;;;;;;90.55;12.85;;;3.00;99.90;;;;;;5014424;28;20465;-76
2023/03/03 04:31:55;;;;;;;72.32;11.50;;;2.90;99.90;;;;;;5033584;28;20073;-76
2023/03/03 04:34:21;;;;;;;84.22;13.27;;;3.00;99.90;;;;;;5036432;28;20049;-76
2023/03/03 04:36:46;;;;;;;85.43;13.23;;;2.90;99.90;;;;;;5036759;28;20037;-77
2023/03/03 04:39:12;;;;;;;47.70;10.30;;;3.00;99.90;;;;;;5036859;28;20045;-76
2023/03/03 04:41:38;;;;;;;55.15;9.57;;;3.10;99.90;;;;;;5036526;28;20497;-76
2023/03/03 04:44:03;;;;;;;27.63;8.68;;;2.90;99.90;;;;;;5036282;28;20371;-76
2023/03/03 04:46:29;;;;;;;46.35;9.93;;;2.90;99.90;;;;;;5036681;28;20038;-76
2023/03/03 04:48:55;;;;;;;47.35;10.60;;;3.00;99.90;;;;;;5018944;28;20054;-76
2023/03/03 04:51:21;;;;;;;46.17;10.15;;;3.00;99.90;;;;;;5036670;28;20110;-75
2023/03/03 04:53:47;;;;;;;86.65;11.95;;;3.10;99.90;;;;;;5036485;28;20079;-76
2023/03/03 04:56:13;;;;;;;187.48;18.02;;;3.10;99.90;;;;;;5035993;28;20061;-76
2023/03/03 04:58:39;;;;;;;66.93;10.18;;;3.00;99.90;;;;;;5035964;28;20056;-76
2023/03/03 05:01:05;;;;;;;75.35;11.85;;;2.90;99.90;;;;;;5018744;28;20049;-76
2023/03/03 05:03:30;;;;;;;43.60;8.60;;;2.80;99.90;;;;;;5035824;28;20045;-76
2023/03/03 05:05:56;;;;;;;126.65;14.95;;;2.80;99.90;;;;;;5036209;28;20455;-76
2023/03/03 05:08:22;;;;;;;90.43;12.57;;;3.40;99.90;;;;;;5035871;28;20045;-76
2023/03/03 05:10:53;;;;;;;33.38;7.40;;;2.70;99.90;;;;;;5018770;28;20103;-76
2023/03/03 05:13:19;;;;;;;39.45;8.25;;;2.60;99.90;;;;;;5036254;28;20099;-76
2023/03/03 05:15:49;;;;;;;30.83;6.75;;;3.00;99.90;;;;;;5036228;28;20046;-76
2023/03/03 05:18:16;;;;;;;11.35;5.65;;;2.60;99.90;;;;;;5035769;28;20054;-74
2023/03/03 05:20:42;;;;;;;48.92;9.27;;;2.70;99.90;;;;;;5018540;28;20049;-76
2023/03/03 05:23:08;;;;;;;34.05;7.63;;;2.90;99.90;;;;;;5036048;28;20053;-75
2023/03/03 05:25:33;;;;;;;27.67;6.25;;;2.70;99.90;;;;;;5035408;28;20103;-76
2023/03/03 05:27:59;;;;;;;47.33;8.52;;;2.70;99.90;;;;;;5018218;28;20049;-76
2023/03/03 05:30:25;;;;;;;53.20;8.95;;;2.70;99.90;;;;;;5018483;28;20124;-74
2023/03/03 05:32:50;;;;;;;47.45;8.27;;;2.60;99.90;;;;;;5035383;28;20077;-76
2023/03/03 05:35:16;;;;;;;51.38;8.32;;;2.50;99.90;;;;;;5036121;28;20050;-76
2023/03/03 05:37:46;;;;;;;43.22;7.88;;;2.40;99.90;;;;;;5036306;28;20049;-76
2023/03/03 05:40:13;;;;;;;48.22;7.53;;;2.30;99.90;;;;;;5035633;28;20136;-76
2023/03/03 05:42:39;;;;;;;40.88;6.35;;;2.20;99.90;;;;;;5035288;28;20053;-75
2023/03/03 05:45:05;;;;;;;14.98;4.53;;;2.10;99.90;;;;;;5017431;28;20084;-76
2023/03/03 05:47:30;;;;;;;31.15;6.57;;;2.00;99.90;;;;;;5035646;28;20041;-76
2023/03/03 05:49:56;;;;;;;15.98;4.95;;;1.90;99.90;;;;;;5035295;28;20477;-76
2023/03/03 05:52:23;;;;;;;23.52;5.00;;;2.00;99.90;;;;;;5035204;28;20042;-77
2023/03/03 05:54:49;;;;;;;15.75;5.03;;;2.20;99.90;;;;;;5035778;28;20359;-76
2023/03/03 05:57:15;;;;;;;7.07;4.47;;;2.20;99.90;;;;;;5034957;28;20045;-76
2023/03/03 05:59:40;;;;;;;17.17;4.82;;;1.90;99.90;;;;;;5035035;28;20053;-76
2023/03/03 06:02:06;;;;;;;52.08;7.53;;;2.00;99.90;;;;;;5017508;28;20209;-77
2023/03/03 06:04:32;;;;;;;27.23;6.13;;;2.50;99.90;;;;;;5035295;28;20041;-76
2023/03/03 06:06:58;;;;;;;37.10;7.53;;;1.90;99.90;;;;;;5035425;28;20041;-76
2023/03/03 06:09:25;;;;;;;41.40;6.68;;;2.00;99.90;;;;;;5035192;28;20477;-76
2023/03/03 06:11:52;;;;;;;38.47;6.43;;;1.90;99.90;;;;;;5017432;28;20045;-75
2023/03/03 06:14:19;;;;;;;32.67;6.18;;;1.80;99.90;;;;;;5034699;28;20428;-75
2023/03/03 06:16:46;;;;;;;18.48;5.50;;;2.30;99.90;;;;;;5017461;28;20045;-75
2023/03/03 06:19:13;;;;;;;28.13;6.45;;;1.70;99.90;;;;;;5034840;28;20116;-76
2023/03/03 06:21:39;;;;;;;39.90;6.97;;;2.10;99.90;;;;;;5034552;28;20470;-76
2023/03/03 06:24:05;;;;;;;20.55;6.10;;;1.70;99.90;;;;;;5034402;28;20045;-76
2023/03/03 06:26:32;;;;;;;11.90;5.32;;;1.70;99.90;;;;;;5034615;28;20045;-76
2023/03/03 06:28:58;;;;;;;39.03;6.63;;;1.80;99.90;;;;;;5017145;28;20045;-76
2023/03/03 06:31:25;;;;;;;19.70;5.78;;;1.60;99.90;;;;;;5034361;28;20060;-76
2023/03/03 06:33:50;;;;;;;17.08;4.80;;;1.70;99.90;;;;;;5034125;28;20477;-75
2023/03/03 06:36:17;;;;;;;28.77;6.22;;;1.70;99.90;;;;;;5034451;28;20048;-76
2023/03/03 06:38:43;;;;;;;24.60;5.40;;;1.70;99.90;;;;;;5034290;28;20137;-76
2023/03/03 06:41:09;;;;;;;7.97;4.43;;;2.00;99.90;;;;;;5034029;28;20084;-76
2023/03/03 06:43:35;;;;;;;17.85;4.72;;;1.70;99.90;;;;;;5034197;28;20053;-74
2023/03/03 06:46:02;;;;;;;8.20;4.13;;;1.70;99.90;;;;;;5016561;28;20051;-75
2023/03/03 06:48:29;;;;;;;7.75;4.38;;;1.60;99.90;;;;;;5000709;28;20057;-75
2023/03/03 06:50:54;;;;;;;18.40;4.80;;;1.70;99.90;;;;;;5033994;28;20056;-76
2023/03/03 06:53:20;;;;;;;10.73;4.90;;;1.50;99.90;;;;;;5033945;28;20371;-74
2023/03/03 06:55:46;;;;;;;9.00;4.78;;;2.10;99.90;;;;;;4999663;28;20376;-75
2023/03/03 06:58:14;;;;;;;7.60;4.18;;;1.50;99.90;;;;;;5033222;28;20129;-73
2023/03/03 07:00:42;;;;;;;5.75;4.78;;;1.60;99.90;;;;;;5033821;28;20045;-75
2023/03/03 07:03:15;;;;;;;8.88;5.72;;;1.90;99.90;;;;;;5033350;28;20065;-76
2023/03/03 07:05:42;;;;;;;7.05;4.55;;;1.80;99.90;;;;;;5033091;28;20108;-75
2023/03/03 07:08:17;;;;;;;9.70;5.90;;;2.00;99.90;;;;;;5032065;28;20400;-75
2023/03/03 07:10:43;;;;;;;6.13;5.10;;;2.00;99.90;;;;;;5033297;28;20056;-75
2023/03/03 07:13:23;;;;;;;6.80;4.82;;;2.00;99.90;;;;;;5032348;28;20344;-74
2023/03/03 07:15:51;;;;;;;5.20;4.68;;;1.90;99.90;;;;;;5033054;28;20041;-76
2023/03/03 07:18:25;;;;;;;10.52;4.90;;;2.90;99.90;;;;;;5032832;28;20045;-75
2023/03/03 07:20:51;;;;;;;9.07;5.18;;;1.90;99.90;;;;;;5015926;28;20115;-75
2023/03/03 07:23:24;;;;;;;8.48;5.82;;;1.80;99.90;;;;;;5033075;28;20529;-75
2023/03/03 07:25:50;;;;;;;5.50;4.90;;;1.80;99.90;;;;;;5015768;28;20133;-74
2023/03/03 07:28:27;;;;;;;6.85;4.90;;;2.20;99.90;;;;;;5032969;28;20092;-75
2023/03/03 07:34:20;;;;;;;18.95;6.60;;;2.10;99.90;;;;;;5111004;27;1970230;-75
2023/03/03 07:36:47;;;;;;;14.55;5.93;;;2.10;99.90;;;;;;5138238;27;20058;-76
2023/03/03 07:39:35;;;;;;;10.75;6.00;;;2.30;99.90;;;;;;5138413;27;20106;-75
2023/03/03 07:42:23;;;;;;;30.17;6.38;;;2.10;99.90;;;;;;5149842;27;20050;-75
2023/03/03 07:44:59;;;;;;;15.93;5.55;;;2.10;99.90;;;;;;5135307;27;20090;-75
2023/03/03 07:47:30;;;;;;;14.35;4.75;;;2.20;99.90;;;;;;5155603;27;20405;-75
2023/03/03 07:50:06;;;;;;;22.60;6.38;;;2.20;99.90;;;;;;5157236;27;20074;-74
2023/03/03 07:52:44;;;;;;;8.55;3.70;;;2.40;99.90;;;;;;5151687;27;20039;-75
2023/03/03 07:55:32;;;;;;;6.57;4.65;;;2.40;99.90;;;;;;5154596;27;20082;-73
2023/03/03 07:58:13;;;;;;;14.52;5.03;;;2.60;99.90;;;;;;5148584;27;20081;-75
2023/03/03 08:00:39;;;;;;;8.00;4.93;;;2.80;99.90;;;;;;5153510;27;20050;-73
2023/03/03 08:03:16;;;;;;;4.50;4.10;;;2.80;99.90;;;;;;5137864;27;20055;-73
2023/03/03 08:05:50;;;;;;;3.67;3.35;;;3.00;99.90;;;;;;5156426;27;20042;-74
2023/03/03 08:08:32;;;;;;;8.07;3.92;;;3.20;99.90;;;;;;5155255;27;20046;-72
2023/03/03 08:10:59;;;;;;;6.75;3.92;;;3.30;99.90;;;;;;5154877;27;20182;-74
2023/03/03 08:13:37;;;;;;;3.97;3.55;;;3.40;99.90;;;;;;5132583;27;20046;-73
2023/03/03 08:16:08;;;;;;;12.13;4.28;;;3.50;99.90;;;;;;5152317;27;20124;-73
2023/03/03 08:18:45;;;;;;;8.93;4.07;;;3.60;99.90;;;;;;5154447;27;20436;-73
2023/03/03 08:21:17;;;;;;;4.18;3.58;;;3.70;99.90;;;;;;5153675;27;20058;-72
2023/03/03 08:23:43;;;;;;;6.93;4.25;;;4.00;99.90;;;;;;5151736;27;20038;-73
2023/03/03 08:26:12;;;;;;;4.82;3.70;;;4.40;99.90;;;;;;5151424;27;20125;-73
2023/03/03 08:28:38;;;;;;;4.45;3.90;;;4.70;99.90;;;;;;5155639;27;20034;-74
2023/03/03 08:31:04;;;;;;;4.20;3.58;;;4.80;99.90;;;;;;5155817;27;20053;-73
2023/03/03 08:33:30;;;;;;;4.65;4.25;;;4.80;99.90;;;;;;5155256;27;20104;-74
2023/03/03 08:35:55;;;;;;;4.05;3.75;;;4.70;99.90;;;;;;5156346;27;20050;-72
2023/03/03 08:38:21;;;;;;;3.83;3.47;;;4.50;99.90;;;;;;5157508;27;20503;-74
2023/03/03 08:40:48;;;;;;;4.00;3.60;;;4.40;99.90;;;;;;5156172;27;20090;-74
2023/03/03 08:43:20;;;;;;;4.75;3.63;;;4.30;99.90;;;;;;5154348;27;20125;-75
2023/03/03 08:45:51;;;;;;;3.70;3.25;;;4.20;99.90;;;;;;5141544;27;20118;-74
2023/03/03 08:48:18;;;;;;;3.80;3.47;;;4.20;99.90;;;;;;5142016;27;20042;-73
2023/03/03 08:50:44;;;;;;;3.63;3.08;;;4.30;99.90;;;;;;5143096;27;20144;-75
2023/03/03 08:53:12;;;;;;;4.28;3.60;;;4.30;99.90;;;;;;5123745;27;20690;-74
2023/03/03 08:55:38;;;;;;;4.63;4.00;;;4.40;99.90;;;;;;5141204;27;20816;-75
2023/03/03 08:58:04;;;;;;;4.40;3.42;;;4.40;99.90;;;;;;5133205;27;20058;-75
2023/03/03 09:00:29;;;;;;;4.78;3.55;;;4.50;99.90;;;;;;5140220;27;20126;-74
2023/03/03 09:02:55;;;;;;;4.57;4.13;;;4.50;99.90;;;;;;5141388;27;20043;-76
2023/03/03 09:05:22;;;;;;;4.85;4.32;;;4.20;99.90;;;;;;5140983;27;20043;-75
2023/03/03 09:07:50;;;;;;;5.18;4.53;;;4.30;99.90;;;;;;5140781;27;20069;-78
2023/03/03 09:10:19;;;;;;;7.00;4.82;;;4.20;99.90;;;;;;5142466;27;20074;-77
2023/03/03 09:12:49;;;;;;;4.65;4.25;;;4.30;99.90;;;;;;5140651;27;20061;-78
2023/03/03 09:15:26;;;;;;;5.40;4.63;;;4.40;99.90;;;;;;5140269;27;20053;-74
2023/03/03 09:17:52;;;;;;;4.50;4.10;;;4.50;99.90;;;;;;5142255;27;20043;-78
2023/03/03 09:20:39;;;;;;;5.57;4.78;;;4.50;99.90;;;;;;5143080;27;20042;-77
2023/03/03 09:23:27;;;;;;;5.25;4.70;;;4.50;99.90;;;;;;5141807;27;20038;-75
2023/03/03 09:25:53;;;;;;;7.88;4.50;;;4.50;99.90;;;;;;5139589;27;20047;-79
2023/03/03 09:28:29;;;;;;;5.15;4.43;;;4.60;99.90;;;;;;5142161;27;20054;-77
2023/03/03 09:30:59;;;;;;;5.00;4.45;;;4.50;99.90;;;;;;5142697;27;20157;-77
2023/03/03 09:33:41;;;;;;;7.25;6.20;;;4.40;99.90;;;;;;5121626;27;20486;-78
2023/03/03 09:36:28;;;;;;;5.97;5.32;;;4.50;99.90;;;;;;5142223;27;20077;-75
2023/03/03 09:38:55;;;;;;;5.20;4.65;;;4.50;99.90;;;;;;5140693;27;20049;-75
2023/03/03 09:41:36;;;;;;;7.55;5.80;;;4.50;99.90;;;;;;5140128;27;20077;-74
2023/03/03 09:44:20;;;;;;;5.60;5.07;;;4.60;99.90;;;;;;5138513;27;20070;-72
2023/03/03 09:47:07;;;;;;;6.13;5.15;;;4.70;99.90;;;;;;5140561;27;20042;-74
2023/03/03 09:50:02;;;;;;;7.18;5.35;;;4.60;99.90;;;;;;5138313;27;20487;-74
2023/03/03 09:52:53;;;;;;;6.40;5.45;;;4.70;99.90;;;;;;5139662;27;20042;-74
2023/03/03 09:55:36;;;;;;;6.50;5.32;;;4.80;99.90;;;;;;5118215;27;20050;-73
2023/03/03 09:58:44;;;;;;;6.47;5.60;;;4.90;99.90;;;;;;5119268;27;20051;-74
2023/03/03 10:01:34;;;;;;;6.78;5.20;;;5.10;99.90;;;;;;5135893;27;20054;-73
2023/03/03 10:04:27;;;;;;;6.20;5.07;;;5.30;99.90;;;;;;5108681;27;20125;-75
2023/03/03 10:07:16;;;;;;;12.18;5.88;;;5.50;99.90;;;;;;5139005;27;20042;-73
2023/03/03 10:09:47;;;;;;;6.50;5.80;;;5.70;99.90;;;;;;5094949;27;20388;-75
2023/03/03 10:12:38;;;;;;;6.05;5.05;;;5.80;99.90;;;;;;5140261;27;20046;-74
2023/03/03 10:15:29;;;;;;;7.10;5.57;;;6.20;99.90;;;;;;5137808;27;20047;-74
2023/03/03 10:18:14;;;;;;;5.60;4.63;;;6.10;99.90;;;;;;5137039;27;20057;-74
2023/03/03 10:21:07;;;;;;;5.63;4.20;;;6.20;99.90;;;;;;5120211;27;20130;-74
2023/03/03 10:23:53;;;;;;;8.93;5.30;;;6.40;99.90;;;;;;5140724;27;20039;-75
2023/03/03 10:26:32;;;;;;;7.53;4.57;;;6.60;99.90;;;;;;5137938;27;20051;-75
2023/03/03 10:29:32;;;;;;;5.90;5.05;;;6.80;99.90;;;;;;5139260;27;20058;-73
2023/03/03 10:32:18;;;;;;;5.97;4.63;;;7.00;99.90;;;;;;5106971;27;20415;-75
2023/03/03 10:34:53;;;;;;;5.13;4.60;;;7.20;99.90;;;;;;5139405;27;20057;-75
2023/03/03 10:37:44;;;;;;;5.68;5.18;;;7.40;99.90;;;;;;5129731;27;20050;-75
2023/03/03 10:40:35;;;;;;;5.85;4.60;;;7.30;99.90;;;;;;5142295;27;20123;-74
2023/03/03 10:43:07;;;;;;;4.35;3.58;;;7.50;99.90;;;;;;5131934;27;20129;-74
2023/03/03 10:45:39;;;;;;;5.70;3.92;;;7.60;99.90;;;;;;5139211;27;20089;-75
2023/03/03 10:48:20;;;;;;;4.20;3.80;;;7.70;99.90;;;;;;5120035;27;20042;-74
2023/03/03 10:51:00;;;;;;;3.97;2.78;;;7.70;99.90;;;;;;5137468;27;20081;-74
2023/03/03 10:53:47;;;;;;;4.95;3.50;;;7.80;99.90;;;;;;5139873;27;20370;-76
2023/03/03 10:56:16;;;;;;;5.07;3.97;;;7.70;99.90;;;;;;5134782;27;20509;-75
2023/03/03 10:58:56;;;;;;;4.45;3.47;;;7.80;99.90;;;;;;5136987;27;20434;-76
2023/03/03 11:01:43;;;;;;;12.35;3.97;;;7.80;99.90;;;;;;5134512;27;20095;-75
2023/03/03 11:04:21;;;;;;;3.55;2.72;;;8.00;99.90;;;;;;5131354;27;20479;-76
2023/03/03 11:07:09;;;;;;;3.08;2.80;;;8.10;99.90;;;;;;5132476;27;20997;-76
2023/03/03 11:09:47;;;;;;;3.25;2.78;;;8.20;99.90;;;;;;5131866;27;20093;-76
2023/03/03 11:12:46;;;;;;;5.70;3.63;;;8.30;99.90;;;;;;5120621;27;20078;-76
2023/03/03 11:15:27;;;;;;;3.67;2.50;;;8.40;99.90;;;;;;5119207;27;20055;-75
2023/03/03 11:18:17;;;;;;;5.15;2.35;;;8.50;99.90;;;;;;5138496;27;20058;-76
2023/03/03 11:21:05;;;;;;;3.80;2.50;;;8.50;99.90;;;;;;5140628;27;20043;-76
2023/03/03 11:24:18;;;;;;;4.80;3.33;;;8.60;99.90;;;;;;5140185;27;20049;-75
2023/03/03 11:27:01;;;;;;;1.85;1.73;;;8.60;99.90;;;;;;5054912;28;20044;-76
2023/03/03 11:29:39;;;;;;;5.93;2.15;;;8.60;99.90;;;;;;5134755;27;20092;-75
2023/03/03 11:32:40;;;;;;;5.57;2.72;;;8.40;99.90;;;;;;5140839;27;20372;-75
2023/03/03 11:35:20;;;;;;;3.20;2.50;;;8.30;99.90;;;;;;5140186;27;20059;-74
2023/03/03 11:38:23;;;;;;;2.97;2.53;;;8.40;99.90;;;;;;5140337;27;20039;-74
2023/03/03 11:41:05;;;;;;;4.72;2.83;;;8.50;99.90;;;;;;5134124;27;20471;-75
2023/03/03 11:43:46;;;;;;;5.37;2.70;;;8.50;99.90;;;;;;5103160;27;20520;-74
2023/03/03 11:46:21;;;;;;;3.00;2.53;;;8.70;99.90;;;;;;5137474;27;20050;-75
2023/03/03 11:49:08;;;;;;;2.58;2.15;;;8.80;99.90;;;;;;5140499;27;20726;-74
2023/03/03 11:51:52;;;;;;;2.75;1.90;;;9.00;99.90;;;;;;5139173;27;20126;-76
2023/03/03 11:54:27;;;;;;;2.17;1.85;;;9.00;99.90;;;;;;5138264;27;20038;-76
2023/03/03 11:57:13;;;;;;;2.65;1.70;;;9.00;99.90;;;;;;5119516;27;20050;-76
2023/03/03 12:00:08;;;;;;;4.13;2.30;;;9.10;99.90;;;;;;5140448;27;20054;-76
2023/03/03 12:02:50;;;;;;;6.32;1.90;;;9.20;99.90;;;;;;5105753;27;20082;-76
2023/03/03 12:05:27;;;;;;;1.67;1.58;;;8.90;99.90;;;;;;5137651;27;20089;-76
2023/03/03 12:08:02;;;;;;;2.38;1.35;;;9.00;99.90;;;;;;5138526;27;20042;-76
2023/03/03 12:10:39;;;;;;;3.38;1.50;;;8.80;99.90;;;;;;5139625;27;20043;-76
2023/03/03 12:13:13;;;;;;;2.38;1.55;;;8.80;99.90;;;;;;5138923;27;20074;-76
2023/03/03 12:16:00;;;;;;;2.17;1.20;;;8.60;99.90;;;;;;5137730;27;20079;-75
2023/03/03 12:19:22;;;;;;;3.53;1.45;;;8.60;99.90;;;;;;5121852;27;20082;-74
2023/03/03 12:22:02;;;;;;;1.85;1.20;;;8.50;99.90;;;;;;5077365;28;20050;-75
2023/03/03 12:24:57;;;;;;;1.67;1.35;;;8.60;99.90;;;;;;5072204;28;20124;-75
2023/03/03 12:28:01;;;;;;;1.02;0.90;;;8.40;99.90;;;;;;5124199;27;20054;-76
2023/03/03 12:30:36;;;;;;;1.15;0.80;;;8.50;99.90;;;;;;5102406;27;20406;-75
2023/03/03 12:33:33;;;;;;;3.25;1.48;;;8.40;99.90;;;;;;5139267;27;20043;-75
2023/03/03 12:36:17;;;;;;;0.93;0.93;;;8.30;99.90;;;;;;5137711;27;20142;-76
2023/03/03 12:39:00;;;;;;;1.75;1.30;;;8.40;99.90;;;;;;5139819;27;20051;-75
2023/03/03 12:41:51;;;;;;;2.10;1.20;;;8.40;99.90;;;;;;5139359;27;20220;-74
2023/03/03 12:44:23;;;;;;;2.67;2.00;;;8.50;99.90;;;;;;5138734;27;20150;-74
2023/03/03 12:47:23;;;;;;;1.48;1.10;;;8.50;99.90;;;;;;5139281;27;20762;-74
2023/03/03 12:50:23;;;;;;;1.83;1.10;;;8.60;99.90;;;;;;5139150;27;20042;-75
2023/03/03 12:53:27;;;;;;;2.75;1.05;;;8.60;99.90;;;;;;5088619;27;20085;-74
2023/03/03 12:56:00;;;;;;;1.98;1.40;;;8.70;99.90;;;;;;5138588;27;20051;-75
2023/03/03 12:58:47;;;;;;;4.93;1.50;;;8.80;99.90;;;;;;5121527;27;20046;-75
2023/03/03 13:01:13;;;;;;;2.92;1.35;;;8.90;99.90;;;;;;5138959;27;20106;-75
2023/03/03 13:03:58;;;;;;;2.42;1.17;;;9.00;99.90;;;;;;5140128;27;20530;-75
2023/03/03 13:06:33;;;;;;;2.50;1.33;;;9.10;99.90;;;;;;5139007;27;20142;-76
2023/03/03 13:09:18;;;;;;;6.50;1.52;;;9.10;99.90;;;;;;5136728;27;20126;-76
2023/03/03 13:11:58;;;;;;;2.85;1.40;;;8.90;99.90;;;;;;5139835;27;20053;-76
2023/03/03 13:14:59;;;;;;;5.75;2.33;;;8.80;99.90;;;;;;5140007;27;20057;-76
2023/03/03 13:17:33;;;;;;;4.47;2.08;;;8.70;99.90;;;;;;5104124;27;20967;-75
2023/03/03 13:20:01;;;;;;;4.28;1.70;;;8.80;99.90;;;;;;5140759;27;20092;-76
2023/03/03 13:22:34;;;;;;;3.95;1.50;;;8.90;99.90;;;;;;5140472;27;20419;-74